DAL1423 KSMF-KSLC
Flight info
| Callsign | DAL1423 |
|---|---|
| Flight time | 1h 18m |
| Altitude | 35000 |
| Route | SCTWN4 MACUS Q124 SLOWN FLECC YUTES2 |
| Aircraft | A321/M-SDE3FGHIRWY/LB1 |
Departure
| Time | 2026-05-07 09:33 |
|---|---|
| Airport | Sacramento International Airport (KSMF) |
Arrival
| Time | 2026-05-07 10:52 |
|---|---|
| Airport | Salt Lake City International Airport (KSLC) |
| Time | Latitude | Longitude | Altitude | Speed | Heading |
|---|---|---|---|---|---|
| 2026-05-07 09:04 | 38.69348 | -121.58650 | 32 ft | 0 kts | 215° |
| 2026-05-07 09:23 | 38.69354 | -121.58644 | 30 ft | 4 kts | 216° |
| 2026-05-07 09:23 | 38.69375 | -121.58624 | 29 ft | 4 kts | 211° |
| 2026-05-07 09:23 | 38.69399 | -121.58608 | 31 ft | 4 kts | 202° |
| 2026-05-07 09:23 | 38.69414 | -121.58600 | 31 ft | 0 kts | 201° |
| 2026-05-07 09:25 | 38.69411 | -121.58596 | 31 ft | 1 kts | 153° |
| 2026-05-07 09:25 | 38.69402 | -121.58560 | 30 ft | 10 kts | 99° |
| 2026-05-07 09:26 | 38.69401 | -121.58455 | 29 ft | 12 kts | 91° |
| 2026-05-07 09:26 | 38.69401 | -121.58392 | 29 ft | 6 kts | 91° |
| 2026-05-07 09:26 | 38.69400 | -121.58341 | 29 ft | 7 kts | 89° |
| 2026-05-07 09:26 | 38.69464 | -121.58292 | 30 ft | 18 kts | 1° |
| 2026-05-07 09:27 | 38.69604 | -121.58291 | 29 ft | 20 kts | 2° |
| 2026-05-07 09:27 | 38.69739 | -121.58285 | 31 ft | 18 kts | 1° |
| 2026-05-07 09:27 | 38.69948 | -121.58286 | 35 ft | 13 kts | 1° |
| 2026-05-07 09:28 | 38.70035 | -121.58283 | 36 ft | 14 kts | 1° |
| 2026-05-07 09:28 | 38.70148 | -121.58279 | 38 ft | 16 kts | 1° |
| 2026-05-07 09:28 | 38.70249 | -121.58278 | 37 ft | 14 kts | 1° |
| 2026-05-07 09:28 | 38.70342 | -121.58276 | 37 ft | 14 kts | 1° |
| 2026-05-07 09:29 | 38.70437 | -121.58274 | 36 ft | 13 kts | 1° |
| 2026-05-07 09:29 | 38.70526 | -121.58273 | 37 ft | 12 kts | 1° |
| 2026-05-07 09:29 | 38.70606 | -121.58271 | 36 ft | 11 kts | 1° |
| 2026-05-07 09:29 | 38.70682 | -121.58250 | 35 ft | 11 kts | 37° |
| 2026-05-07 09:30 | 38.70702 | -121.58160 | 35 ft | 10 kts | 90° |
| 2026-05-07 09:30 | 38.70701 | -121.58131 | 35 ft | 0 kts | 90° |
| 2026-05-07 09:31 | 38.70701 | -121.58129 | 35 ft | 2 kts | 90° |
| 2026-05-07 09:32 | 38.70678 | -121.58025 | 35 ft | 22 kts | 137° |
| 2026-05-07 09:32 | 38.70603 | -121.58005 | 34 ft | 0 kts | 180° |
| 2026-05-07 09:32 | 38.70600 | -121.58005 | 34 ft | 3 kts | 182° |
| 2026-05-07 09:32 | 38.70367 | -121.58012 | 35 ft | 70 kts | 180° |
| 2026-05-07 09:33 | 38.69656 | -121.58024 | 35 ft | 131 kts | 181° |
| 2026-05-07 09:33 | 38.68581 | -121.58022 | 112 ft | 169 kts | 179° |
| 2026-05-07 09:33 | 38.67436 | -121.57994 | 797 ft | 163 kts | 169° |
| 2026-05-07 09:33 | 38.66532 | -121.57193 | 1335 ft | 167 kts | 121° |
| 2026-05-07 09:34 | 38.66100 | -121.55798 | 1841 ft | 172 kts | 111° |
| 2026-05-07 09:34 | 38.65676 | -121.54285 | 2017 ft | 190 kts | 111° |
| 2026-05-07 09:34 | 38.65207 | -121.52633 | 2160 ft | 205 kts | 111° |
| 2026-05-07 09:34 | 38.64705 | -121.50866 | 2296 ft | 217 kts | 111° |
| 2026-05-07 09:35 | 38.64172 | -121.48998 | 2421 ft | 231 kts | 111° |
| 2026-05-07 09:35 | 38.63604 | -121.47012 | 2585 ft | 243 kts | 111° |
| 2026-05-07 09:35 | 38.63110 | -121.44872 | 2760 ft | 260 kts | 96° |
| 2026-05-07 09:35 | 38.63132 | -121.42530 | 3159 ft | 266 kts | 88° |
| 2026-05-07 09:36 | 38.63204 | -121.40152 | 3640 ft | 269 kts | 87° |
| 2026-05-07 09:36 | 38.63270 | -121.37754 | 4140 ft | 270 kts | 86° |
| 2026-05-07 09:36 | 38.63334 | -121.35346 | 4629 ft | 272 kts | 86° |
| 2026-05-07 09:36 | 38.63397 | -121.32921 | 5085 ft | 274 kts | 86° |
| 2026-05-07 09:37 | 38.63459 | -121.30474 | 5480 ft | 277 kts | 86° |
| 2026-05-07 09:37 | 38.63523 | -121.28000 | 5870 ft | 280 kts | 86° |
| 2026-05-07 09:37 | 38.63587 | -121.25491 | 6253 ft | 284 kts | 86° |
| 2026-05-07 09:37 | 38.63651 | -121.22957 | 6632 ft | 287 kts | 86° |
| 2026-05-07 09:38 | 38.63715 | -121.20400 | 7012 ft | 288 kts | 87° |
| 2026-05-07 09:38 | 38.63778 | -121.17830 | 7396 ft | 289 kts | 87° |
| 2026-05-07 09:38 | 38.63842 | -121.15252 | 7780 ft | 291 kts | 88° |
| 2026-05-07 09:38 | 38.63906 | -121.12662 | 8165 ft | 292 kts | 88° |
| 2026-05-07 09:39 | 38.63968 | -121.10092 | 8542 ft | 293 kts | 88° |
| 2026-05-07 09:39 | 38.64030 | -121.07478 | 8925 ft | 294 kts | 89° |
| 2026-05-07 09:39 | 38.64091 | -121.04856 | 9303 ft | 296 kts | 89° |
| 2026-05-07 09:39 | 38.64152 | -121.02222 | 9655 ft | 298 kts | 89° |
| 2026-05-07 09:40 | 38.64214 | -120.99569 | 10006 ft | 299 kts | 89° |
| 2026-05-07 09:40 | 38.64276 | -120.96890 | 10209 ft | 306 kts | 89° |
| 2026-05-07 09:40 | 38.64338 | -120.94133 | 10345 ft | 314 kts | 89° |
| 2026-05-07 09:40 | 38.64401 | -120.91309 | 10471 ft | 322 kts | 88° |
| 2026-05-07 09:41 | 38.64464 | -120.88421 | 10586 ft | 328 kts | 89° |
| 2026-05-07 09:41 | 38.64524 | -120.85484 | 10705 ft | 333 kts | 89° |
| 2026-05-07 09:41 | 38.64586 | -120.82499 | 10826 ft | 338 kts | 89° |
| 2026-05-07 09:41 | 38.64650 | -120.79491 | 11057 ft | 337 kts | 88° |
| 2026-05-07 09:42 | 38.64713 | -120.76624 | 11827 ft | 318 kts | 87° |
| 2026-05-07 09:42 | 38.64964 | -120.73851 | 12328 ft | 313 kts | 77° |
| 2026-05-07 09:42 | 38.65567 | -120.71174 | 12866 ft | 314 kts | 68° |
| 2026-05-07 09:42 | 38.66502 | -120.68571 | 13099 ft | 332 kts | 59° |
| 2026-05-07 09:43 | 38.67845 | -120.66063 | 13268 ft | 351 kts | 49° |
| 2026-05-07 09:43 | 38.69481 | -120.63631 | 13481 ft | 367 kts | 48° |
| 2026-05-07 09:43 | 38.71162 | -120.61126 | 14003 ft | 373 kts | 48° |
| 2026-05-07 09:43 | 38.72857 | -120.58584 | 14564 ft | 377 kts | 48° |
| 2026-05-07 09:44 | 38.74559 | -120.56020 | 15133 ft | 379 kts | 49° |
| 2026-05-07 09:44 | 38.76275 | -120.53433 | 15717 ft | 382 kts | 49° |
| 2026-05-07 09:44 | 38.78002 | -120.50828 | 16284 ft | 385 kts | 49° |
| 2026-05-07 09:44 | 38.79738 | -120.48205 | 16856 ft | 387 kts | 49° |
| 2026-05-07 09:45 | 38.81486 | -120.45561 | 17427 ft | 390 kts | 49° |
| 2026-05-07 09:45 | 38.83246 | -120.42898 | 17939 ft | 394 kts | 49° |
| 2026-05-07 09:45 | 38.85024 | -120.40208 | 18471 ft | 397 kts | 49° |
| 2026-05-07 09:45 | 38.86817 | -120.37498 | 18945 ft | 399 kts | 48° |
| 2026-05-07 09:46 | 38.88619 | -120.34770 | 19414 ft | 401 kts | 48° |
| 2026-05-07 09:46 | 38.90427 | -120.32031 | 19879 ft | 403 kts | 48° |
| 2026-05-07 09:46 | 38.92244 | -120.29272 | 20340 ft | 406 kts | 48° |
| 2026-05-07 09:46 | 38.94073 | -120.26500 | 20815 ft | 407 kts | 48° |
| 2026-05-07 09:47 | 38.95888 | -120.23751 | 21287 ft | 409 kts | 48° |
| 2026-05-07 09:47 | 38.97732 | -120.20953 | 21759 ft | 412 kts | 48° |
| 2026-05-07 09:47 | 38.99584 | -120.18134 | 22231 ft | 414 kts | 48° |
| 2026-05-07 09:47 | 39.01444 | -120.15296 | 22699 ft | 416 kts | 48° |
| 2026-05-07 09:48 | 39.03312 | -120.12441 | 23165 ft | 418 kts | 48° |
| 2026-05-07 09:48 | 39.05187 | -120.09575 | 23629 ft | 420 kts | 48° |
| 2026-05-07 09:48 | 39.07070 | -120.06694 | 24026 ft | 422 kts | 48° |
| 2026-05-07 09:48 | 39.08966 | -120.03793 | 24398 ft | 424 kts | 48° |
| 2026-05-07 09:49 | 39.10868 | -120.00883 | 24755 ft | 426 kts | 48° |
| 2026-05-07 09:49 | 39.12778 | -119.97961 | 25098 ft | 427 kts | 48° |
| 2026-05-07 09:49 | 39.14699 | -119.95021 | 25460 ft | 429 kts | 48° |
| 2026-05-07 09:49 | 39.16622 | -119.92072 | 25820 ft | 431 kts | 49° |
| 2026-05-07 09:50 | 39.18554 | -119.89108 | 26173 ft | 433 kts | 48° |
| 2026-05-07 09:50 | 39.20496 | -119.86130 | 26524 ft | 435 kts | 48° |
| 2026-05-07 09:50 | 39.22443 | -119.83137 | 26870 ft | 437 kts | 48° |
| 2026-05-07 09:50 | 39.24369 | -119.80170 | 27214 ft | 438 kts | 48° |
| 2026-05-07 09:51 | 39.26332 | -119.77141 | 27539 ft | 440 kts | 48° |
| 2026-05-07 09:51 | 39.28297 | -119.74101 | 27864 ft | 442 kts | 48° |
| 2026-05-07 09:51 | 39.30271 | -119.71042 | 28159 ft | 444 kts | 48° |
| 2026-05-07 09:51 | 39.32251 | -119.67973 | 28449 ft | 446 kts | 49° |
| 2026-05-07 09:52 | 39.34239 | -119.64892 | 28735 ft | 448 kts | 49° |
| 2026-05-07 09:52 | 39.36242 | -119.61789 | 29022 ft | 449 kts | 49° |
| 2026-05-07 09:52 | 39.38249 | -119.58678 | 29306 ft | 451 kts | 49° |
| 2026-05-07 09:52 | 39.40262 | -119.55560 | 29592 ft | 453 kts | 49° |
| 2026-05-07 09:53 | 39.42283 | -119.52428 | 29873 ft | 455 kts | 48° |
| 2026-05-07 09:53 | 39.44306 | -119.49290 | 30234 ft | 454 kts | 48° |
| 2026-05-07 09:53 | 39.46299 | -119.46192 | 30569 ft | 453 kts | 49° |
| 2026-05-07 09:53 | 39.48306 | -119.43062 | 30923 ft | 451 kts | 49° |
| 2026-05-07 09:54 | 39.50303 | -119.39939 | 31276 ft | 450 kts | 49° |
| 2026-05-07 09:54 | 39.52294 | -119.36823 | 31624 ft | 448 kts | 49° |
| 2026-05-07 09:54 | 39.54279 | -119.33714 | 31966 ft | 447 kts | 49° |
| 2026-05-07 09:54 | 39.56260 | -119.30612 | 32315 ft | 446 kts | 49° |
| 2026-05-07 09:55 | 39.58234 | -119.27520 | 32674 ft | 445 kts | 49° |
| 2026-05-07 09:55 | 39.60205 | -119.24434 | 33041 ft | 444 kts | 48° |
| 2026-05-07 09:55 | 39.62172 | -119.21355 | 33386 ft | 443 kts | 48° |
| 2026-05-07 09:55 | 39.64133 | -119.18278 | 33728 ft | 442 kts | 48° |
| 2026-05-07 09:56 | 39.66090 | -119.15201 | 34058 ft | 441 kts | 48° |
| 2026-05-07 09:56 | 39.68039 | -119.12135 | 34350 ft | 440 kts | 49° |
| 2026-05-07 09:56 | 39.69982 | -119.09074 | 34642 ft | 439 kts | 49° |
| 2026-05-07 09:56 | 39.71920 | -119.06010 | 34933 ft | 438 kts | 49° |
| 2026-05-07 09:57 | 39.73852 | -119.02952 | 35047 ft | 437 kts | 49° |
| 2026-05-07 09:57 | 39.77685 | -118.96886 | 35072 ft | 433 kts | 49° |
| 2026-05-07 09:58 | 39.81506 | -118.90847 | 35064 ft | 432 kts | 48° |
| 2026-05-07 09:58 | 39.85316 | -118.84796 | 35084 ft | 432 kts | 48° |
| 2026-05-07 09:59 | 39.88925 | -118.78542 | 35102 ft | 435 kts | 58° |
| 2026-05-07 09:59 | 39.91777 | -118.71558 | 35125 ft | 437 kts | 59° |
| 2026-05-07 10:00 | 39.94609 | -118.64622 | 35142 ft | 437 kts | 59° |
| 2026-05-07 10:00 | 39.97460 | -118.57638 | 35155 ft | 436 kts | 59° |
| 2026-05-07 10:01 | 40.00304 | -118.50636 | 35162 ft | 436 kts | 59° |
| 2026-05-07 10:01 | 40.03140 | -118.43635 | 35156 ft | 436 kts | 59° |
| 2026-05-07 10:02 | 40.05975 | -118.36625 | 35150 ft | 437 kts | 59° |
| 2026-05-07 10:02 | 40.08800 | -118.29614 | 35081 ft | 436 kts | 59° |
| 2026-05-07 10:03 | 40.11626 | -118.22598 | 35077 ft | 436 kts | 59° |
| 2026-05-07 10:03 | 40.14447 | -118.15579 | 35081 ft | 436 kts | 59° |
| 2026-05-07 10:04 | 40.17241 | -118.08594 | 35076 ft | 436 kts | 59° |
| 2026-05-07 10:04 | 40.19972 | -118.01499 | 35082 ft | 439 kts | 65° |
| 2026-05-07 10:05 | 40.21834 | -117.93861 | 35087 ft | 441 kts | 69° |
| 2026-05-07 10:05 | 40.23625 | -117.86177 | 35083 ft | 441 kts | 69° |
| 2026-05-07 10:06 | 40.25418 | -117.78500 | 35081 ft | 441 kts | 69° |
| 2026-05-07 10:06 | 40.27207 | -117.70821 | 35078 ft | 441 kts | 69° |
| 2026-05-07 10:07 | 40.28992 | -117.63130 | 35078 ft | 441 kts | 69° |
| 2026-05-07 10:07 | 40.30763 | -117.55430 | 35078 ft | 441 kts | 69° |
| 2026-05-07 10:08 | 40.32530 | -117.47726 | 35076 ft | 441 kts | 69° |
| 2026-05-07 10:08 | 40.34287 | -117.40067 | 35081 ft | 441 kts | 69° |
| 2026-05-07 10:09 | 40.36052 | -117.32361 | 35076 ft | 442 kts | 69° |
| 2026-05-07 10:09 | 40.37807 | -117.24642 | 35073 ft | 442 kts | 69° |
| 2026-05-07 10:10 | 40.39269 | -117.18176 | 35090 ft | 441 kts | 69° |
| 2026-05-07 10:10 | 40.41013 | -117.10444 | 35120 ft | 441 kts | 69° |
| 2026-05-07 10:11 | 40.42740 | -117.02778 | 35135 ft | 441 kts | 69° |
| 2026-05-07 10:11 | 40.44488 | -116.95059 | 35148 ft | 441 kts | 69° |
| 2026-05-07 10:12 | 40.46228 | -116.87341 | 35155 ft | 441 kts | 69° |
| 2026-05-07 10:12 | 40.47953 | -116.79611 | 35161 ft | 441 kts | 69° |
| 2026-05-07 10:13 | 40.49662 | -116.71872 | 35146 ft | 441 kts | 69° |
| 2026-05-07 10:13 | 40.51371 | -116.64128 | 35130 ft | 441 kts | 69° |
| 2026-05-07 10:14 | 40.53085 | -116.56385 | 35127 ft | 441 kts | 69° |
| 2026-05-07 10:14 | 40.54787 | -116.48620 | 35103 ft | 442 kts | 69° |
| 2026-05-07 10:15 | 40.56465 | -116.40832 | 35082 ft | 444 kts | 72° |
| 2026-05-07 10:15 | 40.57360 | -116.32736 | 35090 ft | 448 kts | 78° |
| 2026-05-07 10:16 | 40.58134 | -116.24591 | 35103 ft | 449 kts | 77° |
| 2026-05-07 10:16 | 40.58903 | -116.16495 | 35089 ft | 449 kts | 77° |
| 2026-05-07 10:17 | 40.59670 | -116.08337 | 35085 ft | 450 kts | 77° |
| 2026-05-07 10:17 | 40.60434 | -116.00167 | 35092 ft | 450 kts | 78° |
| 2026-05-07 10:18 | 40.61195 | -115.91990 | 35099 ft | 451 kts | 77° |
| 2026-05-07 10:18 | 40.61943 | -115.83800 | 35107 ft | 451 kts | 78° |
| 2026-05-07 10:19 | 40.62684 | -115.75612 | 35113 ft | 450 kts | 78° |
| 2026-05-07 10:19 | 40.63429 | -115.67426 | 35114 ft | 450 kts | 78° |
| 2026-05-07 10:20 | 40.64161 | -115.59236 | 35125 ft | 451 kts | 78° |
| 2026-05-07 10:20 | 40.64888 | -115.51031 | 35119 ft | 451 kts | 78° |
| 2026-05-07 10:21 | 40.65609 | -115.42830 | 35114 ft | 451 kts | 78° |
| 2026-05-07 10:21 | 40.66322 | -115.34625 | 35102 ft | 451 kts | 78° |
| 2026-05-07 10:22 | 40.67029 | -115.26421 | 35101 ft | 451 kts | 78° |
| 2026-05-07 10:22 | 40.67731 | -115.18254 | 35094 ft | 452 kts | 78° |
| 2026-05-07 10:23 | 40.68441 | -115.10029 | 35095 ft | 452 kts | 78° |
| 2026-05-07 10:23 | 40.69138 | -115.01792 | 35091 ft | 452 kts | 78° |
| 2026-05-07 10:24 | 40.69824 | -114.93548 | 35105 ft | 453 kts | 78° |
| 2026-05-07 10:24 | 40.70429 | -114.85268 | 35096 ft | 455 kts | 81° |
| 2026-05-07 10:25 | 40.70669 | -114.76901 | 35091 ft | 458 kts | 83° |
| 2026-05-07 10:25 | 40.70774 | -114.68501 | 35093 ft | 459 kts | 83° |
| 2026-05-07 10:26 | 40.70914 | -114.60150 | 35098 ft | 458 kts | 83° |
| 2026-05-07 10:26 | 40.71116 | -114.51756 | 35104 ft | 458 kts | 83° |
| 2026-05-07 10:27 | 40.71328 | -114.43373 | 35106 ft | 458 kts | 83° |
| 2026-05-07 10:27 | 40.71511 | -114.34987 | 35132 ft | 458 kts | 83° |
| 2026-05-07 10:28 | 40.71681 | -114.26592 | 35138 ft | 458 kts | 83° |
| 2026-05-07 10:28 | 40.71855 | -114.18192 | 34883 ft | 459 kts | 83° |
| 2026-05-07 10:28 | 40.71944 | -114.13981 | 34280 ft | 462 kts | 83° |
| 2026-05-07 10:29 | 40.72033 | -114.09699 | 33258 ft | 470 kts | 84° |
| 2026-05-07 10:29 | 40.72121 | -114.05371 | 32353 ft | 475 kts | 84° |
| 2026-05-07 10:29 | 40.72205 | -114.00979 | 31355 ft | 483 kts | 84° |
| 2026-05-07 10:30 | 40.72352 | -113.92069 | 29762 ft | 485 kts | 84° |
| 2026-05-07 10:30 | 40.72426 | -113.87639 | 29103 ft | 482 kts | 84° |
| 2026-05-07 10:30 | 40.72498 | -113.83241 | 28447 ft | 478 kts | 85° |
| 2026-05-07 10:30 | 40.72568 | -113.78882 | 27796 ft | 474 kts | 85° |
| 2026-05-07 10:31 | 40.72634 | -113.74551 | 27212 ft | 470 kts | 85° |
| 2026-05-07 10:31 | 40.72668 | -113.70257 | 26588 ft | 468 kts | 86° |
| 2026-05-07 10:31 | 40.72665 | -113.65981 | 25987 ft | 464 kts | 86° |
| 2026-05-07 10:31 | 40.72641 | -113.61797 | 25403 ft | 461 kts | 87° |
| 2026-05-07 10:32 | 40.72610 | -113.57528 | 24804 ft | 458 kts | 87° |
| 2026-05-07 10:32 | 40.72584 | -113.53406 | 24245 ft | 455 kts | 86° |
| 2026-05-07 10:32 | 40.72567 | -113.49253 | 23682 ft | 452 kts | 86° |
| 2026-05-07 10:32 | 40.72553 | -113.45134 | 23102 ft | 447 kts | 86° |
| 2026-05-07 10:33 | 40.72540 | -113.41061 | 22607 ft | 441 kts | 86° |
| 2026-05-07 10:33 | 40.72526 | -113.37046 | 22121 ft | 435 kts | 86° |
| 2026-05-07 10:33 | 40.72514 | -113.33080 | 21639 ft | 428 kts | 86° |
| 2026-05-07 10:33 | 40.72504 | -113.29183 | 21194 ft | 422 kts | 86° |
| 2026-05-07 10:34 | 40.72493 | -113.25342 | 20748 ft | 416 kts | 86° |
| 2026-05-07 10:34 | 40.72480 | -113.21548 | 20301 ft | 411 kts | 86° |
| 2026-05-07 10:34 | 40.72462 | -113.17800 | 19862 ft | 407 kts | 86° |
| 2026-05-07 10:34 | 40.72443 | -113.14086 | 19419 ft | 403 kts | 87° |
| 2026-05-07 10:35 | 40.72422 | -113.10409 | 18993 ft | 400 kts | 86° |
| 2026-05-07 10:35 | 40.72398 | -113.06754 | 18538 ft | 397 kts | 87° |
| 2026-05-07 10:35 | 40.72373 | -113.03120 | 18048 ft | 395 kts | 87° |
| 2026-05-07 10:35 | 40.72349 | -112.99511 | 17619 ft | 391 kts | 87° |
| 2026-05-07 10:36 | 40.72324 | -112.95981 | 17482 ft | 379 kts | 87° |
| 2026-05-07 10:36 | 40.72296 | -112.92562 | 17351 ft | 367 kts | 87° |
| 2026-05-07 10:36 | 40.72268 | -112.89288 | 17190 ft | 357 kts | 86° |
| 2026-05-07 10:36 | 40.72245 | -112.86044 | 16875 ft | 352 kts | 86° |
| 2026-05-07 10:37 | 40.72223 | -112.82843 | 16689 ft | 347 kts | 86° |
| 2026-05-07 10:37 | 40.72203 | -112.79671 | 16470 ft | 345 kts | 86° |
| 2026-05-07 10:37 | 40.72179 | -112.76513 | 16255 ft | 344 kts | 87° |
| 2026-05-07 10:37 | 40.72152 | -112.73356 | 16036 ft | 343 kts | 87° |
| 2026-05-07 10:38 | 40.72127 | -112.70219 | 15811 ft | 341 kts | 87° |
| 2026-05-07 10:38 | 40.72096 | -112.67098 | 15598 ft | 339 kts | 87° |
| 2026-05-07 10:38 | 40.72064 | -112.63994 | 15382 ft | 338 kts | 87° |
| 2026-05-07 10:38 | 40.72031 | -112.60903 | 15166 ft | 337 kts | 87° |
| 2026-05-07 10:39 | 40.72002 | -112.57820 | 14937 ft | 336 kts | 87° |
| 2026-05-07 10:39 | 40.71978 | -112.54794 | 14738 ft | 334 kts | 87° |
| 2026-05-07 10:39 | 40.71843 | -112.51739 | 14523 ft | 335 kts | 95° |
| 2026-05-07 10:39 | 40.71533 | -112.48702 | 14366 ft | 334 kts | 95° |
| 2026-05-07 10:40 | 40.71222 | -112.45669 | 14162 ft | 333 kts | 95° |
| 2026-05-07 10:40 | 40.70914 | -112.42648 | 13952 ft | 332 kts | 95° |
| 2026-05-07 10:40 | 40.70607 | -112.39638 | 13718 ft | 331 kts | 95° |
| 2026-05-07 10:40 | 40.70301 | -112.36640 | 13506 ft | 330 kts | 95° |
| 2026-05-07 10:41 | 40.69994 | -112.33651 | 13299 ft | 329 kts | 95° |
| 2026-05-07 10:41 | 40.69687 | -112.30671 | 13084 ft | 328 kts | 95° |
| 2026-05-07 10:41 | 40.69379 | -112.27704 | 12877 ft | 326 kts | 95° |
| 2026-05-07 10:41 | 40.69269 | -112.24747 | 12657 ft | 321 kts | 83° |
| 2026-05-07 10:42 | 40.69492 | -112.21836 | 12444 ft | 319 kts | 80° |
| 2026-05-07 10:42 | 40.69769 | -112.18952 | 12219 ft | 314 kts | 74° |
| 2026-05-07 10:42 | 40.70435 | -112.16240 | 12054 ft | 309 kts | 60° |
| 2026-05-07 10:42 | 40.71526 | -112.13845 | 11887 ft | 302 kts | 47° |
| 2026-05-07 10:43 | 40.72981 | -112.11880 | 11742 ft | 297 kts | 34° |
| 2026-05-07 10:43 | 40.74722 | -112.10468 | 11587 ft | 292 kts | 19° |
| 2026-05-07 10:43 | 40.76642 | -112.09703 | 11437 ft | 287 kts | 5° |
| 2026-05-07 10:43 | 40.78618 | -112.09597 | 11304 ft | 283 kts | 352° |
| 2026-05-07 10:44 | 40.80575 | -112.09831 | 11139 ft | 282 kts | 352° |
| 2026-05-07 10:44 | 40.82530 | -112.10066 | 11008 ft | 282 kts | 352° |
| 2026-05-07 10:44 | 40.84492 | -112.10304 | 10571 ft | 288 kts | 352° |
| 2026-05-07 10:44 | 40.86467 | -112.10541 | 10183 ft | 286 kts | 352° |
| 2026-05-07 10:45 | 40.88441 | -112.10775 | 9814 ft | 284 kts | 352° |
| 2026-05-07 10:45 | 40.90405 | -112.11013 | 9389 ft | 283 kts | 352° |
| 2026-05-07 10:45 | 40.92355 | -112.11248 | 8896 ft | 278 kts | 353° |
| 2026-05-07 10:45 | 40.94276 | -112.11479 | 8176 ft | 274 kts | 353° |
| 2026-05-07 10:46 | 40.96094 | -112.11695 | 8005 ft | 250 kts | 354° |
| 2026-05-07 10:46 | 40.97791 | -112.11476 | 7911 ft | 248 kts | 19° |
| 2026-05-07 10:46 | 40.99199 | -112.10159 | 7822 ft | 252 kts | 51° |
| 2026-05-07 10:46 | 40.99940 | -112.08077 | 7735 ft | 253 kts | 76° |
| 2026-05-07 10:47 | 41.00280 | -112.05776 | 7648 ft | 255 kts | 80° |
| 2026-05-07 10:47 | 41.00524 | -112.03459 | 7521 ft | 253 kts | 90° |
| 2026-05-07 10:47 | 41.00108 | -112.01250 | 7501 ft | 250 kts | 124° |
| 2026-05-07 10:47 | 40.98826 | -111.99786 | 7507 ft | 246 kts | 162° |
| 2026-05-07 10:48 | 40.97140 | -111.99468 | 7396 ft | 247 kts | 180° |
| 2026-05-07 10:48 | 40.95433 | -111.99380 | 7142 ft | 242 kts | 178° |
| 2026-05-07 10:48 | 40.93772 | -111.99216 | 6822 ft | 236 kts | 175° |
| 2026-05-07 10:48 | 40.92177 | -111.99029 | 6534 ft | 223 kts | 174° |
| 2026-05-07 10:49 | 40.90729 | -111.98859 | 6281 ft | 201 kts | 172° |
| 2026-05-07 10:49 | 40.89397 | -111.98704 | 6013 ft | 183 kts | 171° |
| 2026-05-07 10:49 | 40.88179 | -111.98563 | 5824 ft | 168 kts | 172° |
| 2026-05-07 10:49 | 40.87071 | -111.98434 | 5580 ft | 153 kts | 172° |
| 2026-05-07 10:50 | 40.86018 | -111.98309 | 5367 ft | 151 kts | 175° |
| 2026-05-07 10:50 | 40.84972 | -111.98186 | 5165 ft | 150 kts | 174° |
| 2026-05-07 10:50 | 40.83940 | -111.98066 | 4966 ft | 147 kts | 171° |
| 2026-05-07 10:50 | 40.82916 | -111.97936 | 4706 ft | 146 kts | 171° |
| 2026-05-07 10:51 | 40.81907 | -111.97822 | 4509 ft | 145 kts | 172° |
| 2026-05-07 10:51 | 40.80909 | -111.97715 | 4306 ft | 143 kts | 172° |
| 2026-05-07 10:51 | 40.79951 | -111.97598 | 4243 ft | 128 kts | 171° |
| 2026-05-07 10:51 | 40.79160 | -111.97506 | 4232 ft | 94 kts | 174° |
| 2026-05-07 10:52 | 40.78705 | -111.97463 | 4231 ft | 38 kts | 186° |
| 2026-05-07 10:52 | 40.78502 | -111.97542 | 4229 ft | 14 kts | 203° |
| 2026-05-07 10:52 | 40.78481 | -111.97556 | 4228 ft | 0 kts | 207° |
| 2026-05-07 10:53 | 40.78461 | -111.97592 | 4227 ft | 7 kts | 246° |
| 2026-05-07 10:53 | 40.78455 | -111.97656 | 4226 ft | 7 kts | 265° |
| 2026-05-07 10:54 | 40.78457 | -111.97724 | 4226 ft | 9 kts | 295° |
| 2026-05-07 10:54 | 40.78513 | -111.97750 | 4229 ft | 8 kts | 355° |
| 2026-05-07 10:54 | 40.78582 | -111.97758 | 4231 ft | 15 kts | 354° |
| 2026-05-07 10:54 | 40.78685 | -111.97771 | 4233 ft | 14 kts | 355° |
| 2026-05-07 10:55 | 40.78753 | -111.97820 | 4234 ft | 11 kts | 277° |
| 2026-05-07 10:55 | 40.78743 | -111.97930 | 4234 ft | 12 kts | 264° |
| 2026-05-07 10:55 | 40.78737 | -111.98037 | 4233 ft | 14 kts | 266° |
| 2026-05-07 10:55 | 40.78723 | -111.98250 | 4232 ft | 32 kts | 266° |
| 2026-05-07 10:56 | 40.78702 | -111.98548 | 4232 ft | 30 kts | 264° |
| 2026-05-07 10:56 | 40.78684 | -111.98812 | 4231 ft | 28 kts | 265° |
| 2026-05-07 10:56 | 40.78667 | -111.99058 | 4231 ft | 26 kts | 264° |
| 2026-05-07 10:56 | 40.78657 | -111.99227 | 4233 ft | 15 kts | 266° |
| 2026-05-07 10:57 | 40.78642 | -111.99356 | 4233 ft | 12 kts | 232° |
| 2026-05-07 10:57 | 40.78571 | -111.99359 | 4232 ft | 15 kts | 173° |
| 2026-05-07 10:57 | 40.78439 | -111.99342 | 4231 ft | 15 kts | 176° |
| 2026-05-07 10:57 | 40.78412 | -111.99248 | 4231 ft | 12 kts | 83° |
| 2026-05-07 10:58 | 40.78417 | -111.99171 | 4231 ft | 3 kts | 85° |
| 2026-05-07 10:58 | 40.78418 | -111.99149 | 4231 ft | 5 kts | 88° |
| 2026-05-07 10:58 | 40.78423 | -111.99032 | 4233 ft | 19 kts | 85° |
| 2026-05-07 10:58 | 40.78486 | -111.98966 | 4232 ft | 2 kts | 358° |